sensor_id;sensor_type;location;lat;lon;timestamp;temperature;humidity
16301;DHT22;8258;51.020;4.248;2023-03-13T00:01:50;10.30;99.90
16301;DHT22;8258;51.020;4.248;2023-03-13T00:04:17;10.30;99.90
16301;DHT22;8258;51.020;4.248;2023-03-13T00:06:45;10.40;99.90
16301;DHT22;8258;51.020;4.248;2023-03-13T00:09:14;10.40;99.90
16301;DHT22;8258;51.020;4.248;2023-03-13T00:11:42;10.50;99.90
16301;DHT22;8258;51.020;4.248;2023-03-13T00:14:09;10.60;99.90
16301;DHT22;8258;51.020;4.248;2023-03-13T00:16:36;10.60;99.90
16301;DHT22;8258;51.020;4.248;2023-03-13T00:19:04;10.70;99.90
16301;DHT22;8258;51.020;4.248;2023-03-13T00:21:32;10.70;99.90
16301;DHT22;8258;51.020;4.248;2023-03-13T00:24:00;10.80;99.90
16301;DHT22;8258;51.020;4.248;2023-03-13T00:26:28;10.90;99.90
16301;DHT22;8258;51.020;4.248;2023-03-13T00:28:55;10.90;99.90
16301;DHT22;8258;51.020;4.248;2023-03-13T00:31:23;10.90;99.90
16301;DHT22;8258;51.020;4.248;2023-03-13T00:33:53;10.90;99.90
16301;DHT22;8258;51.020;4.248;2023-03-13T00:36:22;10.90;99.90
16301;DHT22;8258;51.020;4.248;2023-03-13T00:38:49;11.00;99.90
16301;DHT22;8258;51.020;4.248;2023-03-13T00:41:20;10.90;99.90
16301;DHT22;8258;51.020;4.248;2023-03-13T00:43:47;11.00;99.90
16301;DHT22;8258;51.020;4.248;2023-03-13T00:46:16;11.00;99.90
16301;DHT22;8258;51.020;4.248;2023-03-13T00:48:43;11.00;99.90
16301;DHT22;8258;51.020;4.248;2023-03-13T00:51:11;11.00;99.90
16301;DHT22;8258;51.020;4.248;2023-03-13T00:53:39;11.00;99.90
16301;DHT22;8258;51.020;4.248;2023-03-13T00:56:07;11.00;99.90
16301;DHT22;8258;51.020;4.248;2023-03-13T00:58:37;11.10;99.90
16301;DHT22;8258;51.020;4.248;2023-03-13T01:01:08;11.10;99.90
16301;DHT22;8258;51.020;4.248;2023-03-13T01:03:36;11.20;99.90
16301;DHT22;8258;51.020;4.248;2023-03-13T01:06:05;11.20;99.90
16301;DHT22;8258;51.020;4.248;2023-03-13T01:08:33;11.20;99.90
16301;DHT22;8258;51.020;4.248;2023-03-13T01:11:01;11.20;99.90
16301;DHT22;8258;51.020;4.248;2023-03-13T01:13:29;11.30;99.90
16301;DHT22;8258;51.020;4.248;2023-03-13T01:16:01;11.40;99.90
16301;DHT22;8258;51.020;4.248;2023-03-13T01:18:28;11.40;99.90
16301;DHT22;8258;51.020;4.248;2023-03-13T01:20:55;11.40;99.90
16301;DHT22;8258;51.020;4.248;2023-03-13T01:23:22;11.50;99.90
16301;DHT22;8258;51.020;4.248;2023-03-13T01:25:49;11.50;99.90
16301;DHT22;8258;51.020;4.248;2023-03-13T01:28:16;11.50;99.90
16301;DHT22;8258;51.020;4.248;2023-03-13T01:30:43;11.60;99.90
16301;DHT22;8258;51.020;4.248;2023-03-13T01:33:11;11.60;99.90
16301;DHT22;8258;51.020;4.248;2023-03-13T01:35:38;11.60;99.90
16301;DHT22;8258;51.020;4.248;2023-03-13T01:38:05;11.60;99.90
16301;DHT22;8258;51.020;4.248;2023-03-13T01:40:38;11.70;99.90
16301;DHT22;8258;51.020;4.248;2023-03-13T01:43:15;11.70;99.90
16301;DHT22;8258;51.020;4.248;2023-03-13T01:45:56;11.70;99.90
16301;DHT22;8258;51.020;4.248;2023-03-13T01:48:28;11.70;99.90
16301;DHT22;8258;51.020;4.248;2023-03-13T01:50:58;11.70;99.90
16301;DHT22;8258;51.020;4.248;2023-03-13T01:53:27;11.70;99.90
16301;DHT22;8258;51.020;4.248;2023-03-13T01:55:57;11.80;99.90
16301;DHT22;8258;51.020;4.248;2023-03-13T01:58:26;11.80;99.90
16301;DHT22;8258;51.020;4.248;2023-03-13T02:00:53;11.80;99.90
16301;DHT22;8258;51.020;4.248;2023-03-13T02:03:21;11.90;99.90
16301;DHT22;8258;51.020;4.248;2023-03-13T02:05:50;12.00;99.90
16301;DHT22;8258;51.020;4.248;2023-03-13T02:08:20;12.00;99.90
16301;DHT22;8258;51.020;4.248;2023-03-13T02:10:52;12.00;99.90
16301;DHT22;8258;51.020;4.248;2023-03-13T02:13:19;12.10;99.90
16301;DHT22;8258;51.020;4.248;2023-03-13T02:15:47;12.10;99.90
16301;DHT22;8258;51.020;4.248;2023-03-13T02:18:14;12.20;99.90
16301;DHT22;8258;51.020;4.248;2023-03-13T02:20:41;12.20;99.90
16301;DHT22;8258;51.020;4.248;2023-03-13T02:23:15;12.20;99.90
16301;DHT22;8258;51.020;4.248;2023-03-13T02:25:47;12.20;99.90
16301;DHT22;8258;51.020;4.248;2023-03-13T02:28:17;12.20;99.90
16301;DHT22;8258;51.020;4.248;2023-03-13T02:30:46;12.20;99.90
16301;DHT22;8258;51.020;4.248;2023-03-13T02:33:15;12.30;99.90
16301;DHT22;8258;51.020;4.248;2023-03-13T02:35:49;12.30;99.90
16301;DHT22;8258;51.020;4.248;2023-03-13T02:38:20;12.30;99.90
16301;DHT22;8258;51.020;4.248;2023-03-13T02:40:50;12.30;99.90
16301;DHT22;8258;51.020;4.248;2023-03-13T02:51:37;12.40;99.90
16301;DHT22;8258;51.020;4.248;2023-03-13T02:54:18;12.40;99.90
16301;DHT22;8258;51.020;4.248;2023-03-13T02:56:51;12.50;99.90
16301;DHT22;8258;51.020;4.248;2023-03-13T02:59:20;12.50;99.90
16301;DHT22;8258;51.020;4.248;2023-03-13T03:01:47;12.60;99.90
16301;DHT22;8258;51.020;4.248;2023-03-13T03:04:17;12.60;99.90
16301;DHT22;8258;51.020;4.248;2023-03-13T03:06:44;12.60;99.90
16301;DHT22;8258;51.020;4.248;2023-03-13T03:09:11;12.60;99.90
16301;DHT22;8258;51.020;4.248;2023-03-13T03:11:38;12.60;99.90
16301;DHT22;8258;51.020;4.248;2023-03-13T03:14:07;12.70;99.90
16301;DHT22;8258;51.020;4.248;2023-03-13T03:16:34;12.70;99.90
16301;DHT22;8258;51.020;4.248;2023-03-13T03:19:01;12.70;99.90
16301;DHT22;8258;51.020;4.248;2023-03-13T03:21:28;12.70;99.90
16301;DHT22;8258;51.020;4.248;2023-03-13T03:23:55;12.80;99.90
16301;DHT22;8258;51.020;4.248;2023-03-13T03:26:22;12.70;99.90
16301;DHT22;8258;51.020;4.248;2023-03-13T03:28:49;12.80;99.90
16301;DHT22;8258;51.020;4.248;2023-03-13T03:31:17;12.80;99.90
16301;DHT22;8258;51.020;4.248;2023-03-13T03:33:44;12.80;99.90
16301;DHT22;8258;51.020;4.248;2023-03-13T03:36:14;12.80;99.90
16301;DHT22;8258;51.020;4.248;2023-03-13T03:38:42;12.80;99.90
16301;DHT22;8258;51.020;4.248;2023-03-13T03:41:11;12.80;99.90
16301;DHT22;8258;51.020;4.248;2023-03-13T03:43:38;12.90;99.90
16301;DHT22;8258;51.020;4.248;2023-03-13T03:46:05;12.80;99.90
16301;DHT22;8258;51.020;4.248;2023-03-13T03:48:34;12.90;99.90
16301;DHT22;8258;51.020;4.248;2023-03-13T03:51:01;12.90;99.90
16301;DHT22;8258;51.020;4.248;2023-03-13T03:53:28;12.90;99.90
16301;DHT22;8258;51.020;4.248;2023-03-13T03:55:56;12.90;99.90
16301;DHT22;8258;51.020;4.248;2023-03-13T03:58:24;13.00;99.90
16301;DHT22;8258;51.020;4.248;2023-03-13T04:00:51;13.00;99.90
16301;DHT22;8258;51.020;4.248;2023-03-13T04:03:18;13.00;99.90
16301;DHT22;8258;51.020;4.248;2023-03-13T04:05:46;13.10;99.90
16301;DHT22;8258;51.020;4.248;2023-03-13T04:08:13;13.10;99.90
16301;DHT22;8258;51.020;4.248;2023-03-13T04:10:40;13.10;99.90
16301;DHT22;8258;51.020;4.248;2023-03-13T04:13:07;13.10;99.90
16301;DHT22;8258;51.020;4.248;2023-03-13T04:15:34;13.10;99.90
16301;DHT22;8258;51.020;4.248;2023-03-13T04:18:01;13.10;99.90
16301;DHT22;8258;51.020;4.248;2023-03-13T04:20:27;13.10;99.90
16301;DHT22;8258;51.020;4.248;2023-03-13T04:22:56;13.10;99.90
16301;DHT22;8258;51.020;4.248;2023-03-13T04:25:23;13.10;99.90
16301;DHT22;8258;51.020;4.248;2023-03-13T04:27:50;13.10;99.90
16301;DHT22;8258;51.020;4.248;2023-03-13T04:30:17;13.10;99.90
16301;DHT22;8258;51.020;4.248;2023-03-13T04:32:44;13.10;99.90
16301;DHT22;8258;51.020;4.248;2023-03-13T04:35:11;13.10;99.90
16301;DHT22;8258;51.020;4.248;2023-03-13T04:37:38;13.10;99.90
16301;DHT22;8258;51.020;4.248;2023-03-13T04:40:07;13.10;99.90
16301;DHT22;8258;51.020;4.248;2023-03-13T04:42:35;13.10;99.90
16301;DHT22;8258;51.020;4.248;2023-03-13T04:45:01;13.10;99.90
16301;DHT22;8258;51.020;4.248;2023-03-13T04:47:28;13.10;99.90
16301;DHT22;8258;51.020;4.248;2023-03-13T04:49:55;13.10;99.90
16301;DHT22;8258;51.020;4.248;2023-03-13T04:52:22;13.10;99.90
16301;DHT22;8258;51.020;4.248;2023-03-13T04:54:49;13.20;99.90
16301;DHT22;8258;51.020;4.248;2023-03-13T04:57:18;13.20;99.90
16301;DHT22;8258;51.020;4.248;2023-03-13T04:59:45;13.20;99.90
16301;DHT22;8258;51.020;4.248;2023-03-13T05:02:12;13.20;99.90
16301;DHT22;8258;51.020;4.248;2023-03-13T05:04:39;13.20;99.90
16301;DHT22;8258;51.020;4.248;2023-03-13T05:07:06;13.20;99.90
16301;DHT22;8258;51.020;4.248;2023-03-13T05:09:33;13.30;99.90
16301;DHT22;8258;51.020;4.248;2023-03-13T05:12:00;13.20;99.90
16301;DHT22;8258;51.020;4.248;2023-03-13T05:14:28;13.30;99.90
16301;DHT22;8258;51.020;4.248;2023-03-13T05:16:55;13.30;99.90
16301;DHT22;8258;51.020;4.248;2023-03-13T05:19:22;13.30;99.90
16301;DHT22;8258;51.020;4.248;2023-03-13T05:21:49;13.30;99.90
16301;DHT22;8258;51.020;4.248;2023-03-13T05:24:16;13.30;99.90
16301;DHT22;8258;51.020;4.248;2023-03-13T05:26:43;13.30;99.90
16301;DHT22;8258;51.020;4.248;2023-03-13T05:29:10;13.20;99.90
16301;DHT22;8258;51.020;4.248;2023-03-13T05:31:38;13.20;99.90
16301;DHT22;8258;51.020;4.248;2023-03-13T05:34:05;13.20;99.90
16301;DHT22;8258;51.020;4.248;2023-03-13T05:36:32;13.20;99.90
16301;DHT22;8258;51.020;4.248;2023-03-13T05:38:59;13.20;99.90
16301;DHT22;8258;51.020;4.248;2023-03-13T05:41:25;13.20;99.90
16301;DHT22;8258;51.020;4.248;2023-03-13T05:43:52;13.20;99.90
16301;DHT22;8258;51.020;4.248;2023-03-13T05:46:19;13.20;99.90
16301;DHT22;8258;51.020;4.248;2023-03-13T05:48:48;13.20;99.90
16301;DHT22;8258;51.020;4.248;2023-03-13T05:51:15;13.20;99.90
16301;DHT22;8258;51.020;4.248;2023-03-13T05:53:41;13.20;99.90
16301;DHT22;8258;51.020;4.248;2023-03-13T05:56:08;13.20;99.90
16301;DHT22;8258;51.020;4.248;2023-03-13T05:58:35;13.20;99.90
16301;DHT22;8258;51.020;4.248;2023-03-13T06:01:06;13.20;99.90
16301;DHT22;8258;51.020;4.248;2023-03-13T06:03:33;13.20;99.90
16301;DHT22;8258;51.020;4.248;2023-03-13T06:06:01;13.20;99.90
16301;DHT22;8258;51.020;4.248;2023-03-13T06:08:28;13.20;99.90
16301;DHT22;8258;51.020;4.248;2023-03-13T06:10:58;13.20;99.90
16301;DHT22;8258;51.020;4.248;2023-03-13T06:13:26;13.20;99.90
16301;DHT22;8258;51.020;4.248;2023-03-13T06:15:53;13.20;99.90
16301;DHT22;8258;51.020;4.248;2023-03-13T06:18:21;13.20;99.90
16301;DHT22;8258;51.020;4.248;2023-03-13T06:20:49;13.20;99.90
16301;DHT22;8258;51.020;4.248;2023-03-13T06:23:18;13.20;99.90
16301;DHT22;8258;51.020;4.248;2023-03-13T06:25:46;13.20;99.90
16301;DHT22;8258;51.020;4.248;2023-03-13T06:28:14;13.30;99.90
16301;DHT22;8258;51.020;4.248;2023-03-13T06:30:41;13.30;99.90
16301;DHT22;8258;51.020;4.248;2023-03-13T06:33:08;13.30;99.90
16301;DHT22;8258;51.020;4.248;2023-03-13T06:35:37;13.30;99.90
16301;DHT22;8258;51.020;4.248;2023-03-13T06:38:08;13.30;99.90
16301;DHT22;8258;51.020;4.248;2023-03-13T06:40:36;13.40;99.90
16301;DHT22;8258;51.020;4.248;2023-03-13T06:43:03;13.40;99.90
16301;DHT22;8258;51.020;4.248;2023-03-13T06:45:30;13.30;99.90
16301;DHT22;8258;51.020;4.248;2023-03-13T06:47:57;13.30;99.90
16301;DHT22;8258;51.020;4.248;2023-03-13T06:50:24;13.30;99.90
16301;DHT22;8258;51.020;4.248;2023-03-13T06:52:51;13.30;99.90
16301;DHT22;8258;51.020;4.248;2023-03-13T06:55:18;13.30;99.90
16301;DHT22;8258;51.020;4.248;2023-03-13T06:57:50;13.30;99.90
16301;DHT22;8258;51.020;4.248;2023-03-13T07:00:18;13.40;99.90
16301;DHT22;8258;51.020;4.248;2023-03-13T07:02:45;13.40;99.90
16301;DHT22;8258;51.020;4.248;2023-03-13T07:05:12;13.40;99.90
16301;DHT22;8258;51.020;4.248;2023-03-13T07:07:39;13.40;99.90
16301;DHT22;8258;51.020;4.248;2023-03-13T07:10:07;13.50;99.90
16301;DHT22;8258;51.020;4.248;2023-03-13T07:12:35;13.50;99.90
16301;DHT22;8258;51.020;4.248;2023-03-13T07:15:04;13.50;99.90
16301;DHT22;8258;51.020;4.248;2023-03-13T07:17:31;13.50;99.90
16301;DHT22;8258;51.020;4.248;2023-03-13T07:19:58;13.50;99.90
16301;DHT22;8258;51.020;4.248;2023-03-13T07:22:25;13.50;99.90
16301;DHT22;8258;51.020;4.248;2023-03-13T07:24:52;13.50;99.90
16301;DHT22;8258;51.020;4.248;2023-03-13T07:27:19;13.50;99.90
16301;DHT22;8258;51.020;4.248;2023-03-13T07:29:47;13.50;99.90
16301;DHT22;8258;51.020;4.248;2023-03-13T07:32:15;13.60;99.90
16301;DHT22;8258;51.020;4.248;2023-03-13T07:34:42;13.70;99.90
16301;DHT22;8258;51.020;4.248;2023-03-13T07:37:10;13.70;99.90
16301;DHT22;8258;51.020;4.248;2023-03-13T07:39:37;13.70;99.90
16301;DHT22;8258;51.020;4.248;2023-03-13T07:42:04;13.80;99.90
16301;DHT22;8258;51.020;4.248;2023-03-13T07:44:31;13.80;99.90
16301;DHT22;8258;51.020;4.248;2023-03-13T07:46:59;13.70;99.90
16301;DHT22;8258;51.020;4.248;2023-03-13T07:49:27;13.40;99.90
16301;DHT22;8258;51.020;4.248;2023-03-13T07:52:05;13.20;99.90
16301;DHT22;8258;51.020;4.248;2023-03-13T07:54:32;13.00;99.90
16301;DHT22;8258;51.020;4.248;2023-03-13T07:57:00;12.90;99.90
16301;DHT22;8258;51.020;4.248;2023-03-13T07:59:27;12.90;99.90
16301;DHT22;8258;51.020;4.248;2023-03-13T08:01:54;12.90;99.90
16301;DHT22;8258;51.020;4.248;2023-03-13T08:04:22;13.10;99.90
16301;DHT22;8258;51.020;4.248;2023-03-13T08:06:50;13.10;99.90
16301;DHT22;8258;51.020;4.248;2023-03-13T08:09:19;13.10;99.90
16301;DHT22;8258;51.020;4.248;2023-03-13T08:11:46;13.10;99.90
16301;DHT22;8258;51.020;4.248;2023-03-13T08:14:13;13.20;99.90
16301;DHT22;8258;51.020;4.248;2023-03-13T08:16:40;13.30;99.90
16301;DHT22;8258;51.020;4.248;2023-03-13T08:19:07;13.30;99.90
16301;DHT22;8258;51.020;4.248;2023-03-13T08:21:36;13.30;99.90
16301;DHT22;8258;51.020;4.248;2023-03-13T08:24:05;13.40;99.90
16301;DHT22;8258;51.020;4.248;2023-03-13T08:26:34;13.50;99.90
16301;DHT22;8258;51.020;4.248;2023-03-13T08:29:04;13.60;99.90
16301;DHT22;8258;51.020;4.248;2023-03-13T08:31:33;13.70;99.90
16301;DHT22;8258;51.020;4.248;2023-03-13T08:34:00;13.80;99.90
16301;DHT22;8258;51.020;4.248;2023-03-13T08:36:30;13.90;99.90
16301;DHT22;8258;51.020;4.248;2023-03-13T08:38:58;14.00;99.90
16301;DHT22;8258;51.020;4.248;2023-03-13T08:41:28;14.00;99.90
16301;DHT22;8258;51.020;4.248;2023-03-13T08:43:56;14.30;99.90
16301;DHT22;8258;51.020;4.248;2023-03-13T08:46:24;15.00;99.90
16301;DHT22;8258;51.020;4.248;2023-03-13T08:48:51;15.50;99.90
16301;DHT22;8258;51.020;4.248;2023-03-13T08:51:20;15.50;99.90
16301;DHT22;8258;51.020;4.248;2023-03-13T08:53:54;15.70;99.90
16301;DHT22;8258;51.020;4.248;2023-03-13T08:56:24;16.20;99.90
16301;DHT22;8258;51.020;4.248;2023-03-13T08:58:55;16.40;99.90
16301;DHT22;8258;51.020;4.248;2023-03-13T09:01:24;16.60;99.90
16301;DHT22;8258;51.020;4.248;2023-03-13T09:03:51;16.50;99.90
16301;DHT22;8258;51.020;4.248;2023-03-13T09:06:18;16.90;99.90
16301;DHT22;8258;51.020;4.248;2023-03-13T09:08:46;17.10;99.90
16301;DHT22;8258;51.020;4.248;2023-03-13T09:11:15;16.80;99.90
16301;DHT22;8258;51.020;4.248;2023-03-13T09:13:44;16.50;99.90
16301;DHT22;8258;51.020;4.248;2023-03-13T09:16:13;16.80;99.90
16301;DHT22;8258;51.020;4.248;2023-03-13T09:18:41;17.40;99.90
16301;DHT22;8258;51.020;4.248;2023-03-13T09:21:09;17.60;99.90
16301;DHT22;8258;51.020;4.248;2023-03-13T09:23:37;17.60;99.90
16301;DHT22;8258;51.020;4.248;2023-03-13T09:26:05;17.30;99.90
16301;DHT22;8258;51.020;4.248;2023-03-13T09:28:32;17.00;99.90
16301;DHT22;8258;51.020;4.248;2023-03-13T09:31:06;16.70;99.90
16301;DHT22;8258;51.020;4.248;2023-03-13T09:33:34;16.90;99.90
16301;DHT22;8258;51.020;4.248;2023-03-13T09:36:02;16.70;99.90
16301;DHT22;8258;51.020;4.248;2023-03-13T09:38:29;16.60;99.90
16301;DHT22;8258;51.020;4.248;2023-03-13T09:41:01;16.40;99.90
16301;DHT22;8258;51.020;4.248;2023-03-13T09:43:38;16.20;99.90
16301;DHT22;8258;51.020;4.248;2023-03-13T09:46:12;15.70;99.90
16301;DHT22;8258;51.020;4.248;2023-03-13T09:48:44;15.60;99.90
16301;DHT22;8258;51.020;4.248;2023-03-13T09:51:16;15.60;99.90
16301;DHT22;8258;51.020;4.248;2023-03-13T09:53:45;15.50;99.90
16301;DHT22;8258;51.020;4.248;2023-03-13T09:56:16;15.50;99.90
16301;DHT22;8258;51.020;4.248;2023-03-13T09:58:51;15.40;99.90
16301;DHT22;8258;51.020;4.248;2023-03-13T10:01:23;15.40;99.90
16301;DHT22;8258;51.020;4.248;2023-03-13T10:03:59;15.70;99.90
16301;DHT22;8258;51.020;4.248;2023-03-13T10:06:29;16.10;99.90
16301;DHT22;8258;51.020;4.248;2023-03-13T10:08:59;16.30;99.90
16301;DHT22;8258;51.020;4.248;2023-03-13T10:11:28;15.90;99.90
16301;DHT22;8258;51.020;4.248;2023-03-13T10:14:04;15.90;99.90
16301;DHT22;8258;51.020;4.248;2023-03-13T10:16:38;15.80;99.90
16301;DHT22;8258;51.020;4.248;2023-03-13T10:19:13;15.80;99.90
16301;DHT22;8258;51.020;4.248;2023-03-13T10:21:41;16.30;99.90
16301;DHT22;8258;51.020;4.248;2023-03-13T10:24:15;17.00;99.90
16301;DHT22;8258;51.020;4.248;2023-03-13T10:26:43;17.20;99.90
16301;DHT22;8258;51.020;4.248;2023-03-13T10:29:20;17.50;99.90
16301;DHT22;8258;51.020;4.248;2023-03-13T10:31:55;19.00;99.90
16301;DHT22;8258;51.020;4.248;2023-03-13T10:34:26;18.80;99.90
16301;DHT22;8258;51.020;4.248;2023-03-13T10:36:56;17.30;99.90
16301;DHT22;8258;51.020;4.248;2023-03-13T10:39:25;16.80;99.90
16301;DHT22;8258;51.020;4.248;2023-03-13T10:41:57;16.80;99.90
16301;DHT22;8258;51.020;4.248;2023-03-13T10:44:31;17.50;99.90
16301;DHT22;8258;51.020;4.248;2023-03-13T10:46:59;18.90;99.90
16301;DHT22;8258;51.020;4.248;2023-03-13T10:49:29;19.30;99.90
16301;DHT22;8258;51.020;4.248;2023-03-13T10:51:58;18.30;99.90
16301;DHT22;8258;51.020;4.248;2023-03-13T10:54:27;18.50;99.90
16301;DHT22;8258;51.020;4.248;2023-03-13T10:57:20;19.20;99.90
16301;DHT22;8258;51.020;4.248;2023-03-13T10:59:51;18.90;99.90
16301;DHT22;8258;51.020;4.248;2023-03-13T11:02:22;19.00;99.90
16301;DHT22;8258;51.020;4.248;2023-03-13T11:04:51;19.10;99.90
16301;DHT22;8258;51.020;4.248;2023-03-13T11:07:26;18.70;99.90
16301;DHT22;8258;51.020;4.248;2023-03-13T11:09:58;18.00;99.90
16301;DHT22;8258;51.020;4.248;2023-03-13T11:12:26;18.30;99.90
16301;DHT22;8258;51.020;4.248;2023-03-13T11:14:57;18.10;99.90
16301;DHT22;8258;51.020;4.248;2023-03-13T11:17:31;17.90;99.90
16301;DHT22;8258;51.020;4.248;2023-03-13T11:20:12;19.00;99.90
16301;DHT22;8258;51.020;4.248;2023-03-13T11:22:48;19.30;99.90
16301;DHT22;8258;51.020;4.248;2023-03-13T11:25:22;19.80;99.90
16301;DHT22;8258;51.020;4.248;2023-03-13T11:28:12;20.10;99.90
16301;DHT22;8258;51.020;4.248;2023-03-13T11:33:42;21.30;99.90
16301;DHT22;8258;51.020;4.248;2023-03-13T11:36:20;21.50;99.90
16301;DHT22;8258;51.020;4.248;2023-03-13T11:38:53;20.70;99.90
16301;DHT22;8258;51.020;4.248;2023-03-13T11:41:32;20.20;99.90
16301;DHT22;8258;51.020;4.248;2023-03-13T11:44:22;19.90;99.90
16301;DHT22;8258;51.020;4.248;2023-03-13T11:47:00;19.60;99.90
16301;DHT22;8258;51.020;4.248;2023-03-13T11:52:39;19.30;99.90
16301;DHT22;8258;51.020;4.248;2023-03-13T11:55:25;19.20;99.90
16301;DHT22;8258;51.020;4.248;2023-03-13T11:58:04;19.60;99.90
16301;DHT22;8258;51.020;4.248;2023-03-13T12:00:35;20.70;99.90
16301;DHT22;8258;51.020;4.248;2023-03-13T12:03:10;21.10;99.90
16301;DHT22;8258;51.020;4.248;2023-03-13T12:05:42;20.10;99.90
16301;DHT22;8258;51.020;4.248;2023-03-13T12:08:17;19.70;99.90
16301;DHT22;8258;51.020;4.248;2023-03-13T12:10:48;19.00;99.90
16301;DHT22;8258;51.020;4.248;2023-03-13T12:13:20;18.90;99.90
16301;DHT22;8258;51.020;4.248;2023-03-13T12:15:50;18.50;99.90
16301;DHT22;8258;51.020;4.248;2023-03-13T12:18:21;19.20;99.90
16301;DHT22;8258;51.020;4.248;2023-03-13T12:20:54;20.70;99.90
16301;DHT22;8258;51.020;4.248;2023-03-13T12:23:31;20.90;99.90
16301;DHT22;8258;51.020;4.248;2023-03-13T12:26:05;20.90;99.90
16301;DHT22;8258;51.020;4.248;2023-03-13T12:28:38;20.00;99.90
16301;DHT22;8258;51.020;4.248;2023-03-13T12:31:15;18.50;99.90
16301;DHT22;8258;51.020;4.248;2023-03-13T12:33:47;18.10;99.90
16301;DHT22;8258;51.020;4.248;2023-03-13T12:36:20;19.60;99.90
16301;DHT22;8258;51.020;4.248;2023-03-13T12:38:55;19.40;99.90
16301;DHT22;8258;51.020;4.248;2023-03-13T12:41:25;18.40;99.90
16301;DHT22;8258;51.020;4.248;2023-03-13T12:43:54;17.90;99.90
16301;DHT22;8258;51.020;4.248;2023-03-13T12:46:35;17.80;99.90
16301;DHT22;8258;51.020;4.248;2023-03-13T12:49:15;19.70;99.90
16301;DHT22;8258;51.020;4.248;2023-03-13T12:52:05;20.70;99.90
16301;DHT22;8258;51.020;4.248;2023-03-13T12:54:50;20.70;99.90
16301;DHT22;8258;51.020;4.248;2023-03-13T12:57:43;21.10;99.90
16301;DHT22;8258;51.020;4.248;2023-03-13T13:00:20;20.30;99.90
16301;DHT22;8258;51.020;4.248;2023-03-13T13:03:01;20.00;99.90
16301;DHT22;8258;51.020;4.248;2023-03-13T13:05:32;21.00;99.90
16301;DHT22;8258;51.020;4.248;2023-03-13T13:08:05;21.70;99.90
16301;DHT22;8258;51.020;4.248;2023-03-13T13:10:33;21.40;99.90
16301;DHT22;8258;51.020;4.248;2023-03-13T13:13:18;21.20;99.90
16301;DHT22;8258;51.020;4.248;2023-03-13T13:15:59;21.00;99.90
16301;DHT22;8258;51.020;4.248;2023-03-13T13:18:29;19.80;99.90
16301;DHT22;8258;51.020;4.248;2023-03-13T13:21:19;18.90;99.90
16301;DHT22;8258;51.020;4.248;2023-03-13T13:23:47;18.60;99.90
16301;DHT22;8258;51.020;4.248;2023-03-13T13:26:48;19.50;99.90
16301;DHT22;8258;51.020;4.248;2023-03-13T13:32:43;21.50;99.90
16301;DHT22;8258;51.020;4.248;2023-03-13T13:35:25;20.10;99.90
16301;DHT22;8258;51.020;4.248;2023-03-13T13:38:29;19.00;99.90
16301;DHT22;8258;51.020;4.248;2023-03-13T13:41:03;18.70;99.90
16301;DHT22;8258;51.020;4.248;2023-03-13T13:43:34;19.40;99.90
16301;DHT22;8258;51.020;4.248;2023-03-13T13:46:04;18.70;99.90
16301;DHT22;8258;51.020;4.248;2023-03-13T13:48:34;19.20;99.90
16301;DHT22;8258;51.020;4.248;2023-03-13T13:51:23;20.40;99.90
16301;DHT22;8258;51.020;4.248;2023-03-13T13:53:52;20.80;99.90
16301;DHT22;8258;51.020;4.248;2023-03-13T13:56:39;21.50;99.90
16301;DHT22;8258;51.020;4.248;2023-03-13T14:02:22;20.70;99.90
16301;DHT22;8258;51.020;4.248;2023-03-13T14:05:05;20.80;99.90
16301;DHT22;8258;51.020;4.248;2023-03-13T14:07:47;21.50;99.90
16301;DHT22;8258;51.020;4.248;2023-03-13T14:10:31;22.10;99.90
16301;DHT22;8258;51.020;4.248;2023-03-13T14:13:01;22.10;99.90
16301;DHT22;8258;51.020;4.248;2023-03-13T14:15:29;21.00;99.90
16301;DHT22;8258;51.020;4.248;2023-03-13T14:17:59;20.10;99.90
16301;DHT22;8258;51.020;4.248;2023-03-13T14:20:35;19.30;99.90
16301;DHT22;8258;51.020;4.248;2023-03-13T14:23:04;19.20;99.90
16301;DHT22;8258;51.020;4.248;2023-03-13T14:25:44;18.80;99.90
16301;DHT22;8258;51.020;4.248;2023-03-13T14:28:19;19.20;99.90
16301;DHT22;8258;51.020;4.248;2023-03-13T14:30:48;20.50;99.90
16301;DHT22;8258;51.020;4.248;2023-03-13T14:33:17;20.50;99.90
16301;DHT22;8258;51.020;4.248;2023-03-13T14:35:44;20.70;99.90
16301;DHT22;8258;51.020;4.248;2023-03-13T14:38:19;20.30;99.90
16301;DHT22;8258;51.020;4.248;2023-03-13T14:40:47;19.90;99.90
16301;DHT22;8258;51.020;4.248;2023-03-13T14:43:20;19.40;99.90
16301;DHT22;8258;51.020;4.248;2023-03-13T14:45:48;19.30;99.90
16301;DHT22;8258;51.020;4.248;2023-03-13T14:48:20;19.10;99.90
16301;DHT22;8258;51.020;4.248;2023-03-13T14:50:49;19.20;99.90
16301;DHT22;8258;51.020;4.248;2023-03-13T14:53:19;19.40;99.90
16301;DHT22;8258;51.020;4.248;2023-03-13T14:55:46;20.10;99.90
16301;DHT22;8258;51.020;4.248;2023-03-13T14:58:26;19.50;99.90
16301;DHT22;8258;51.020;4.248;2023-03-13T15:00:54;19.80;99.90
16301;DHT22;8258;51.020;4.248;2023-03-13T15:03:31;20.90;99.90
16301;DHT22;8258;51.020;4.248;2023-03-13T15:06:13;21.30;99.90
16301;DHT22;8258;51.020;4.248;2023-03-13T15:08:42;21.40;99.90
16301;DHT22;8258;51.020;4.248;2023-03-13T15:11:26;21.50;99.20
16301;DHT22;8258;51.020;4.248;2023-03-13T15:13:55;21.20;99.50
16301;DHT22;8258;51.020;4.248;2023-03-13T15:16:23;20.10;99.90
16301;DHT22;8258;51.020;4.248;2023-03-13T15:18:52;20.00;99.90
16301;DHT22;8258;51.020;4.248;2023-03-13T15:21:21;20.60;99.70
16301;DHT22;8258;51.020;4.248;2023-03-13T15:23:50;19.50;99.90
16301;DHT22;8258;51.020;4.248;2023-03-13T15:26:18;18.90;99.90
16301;DHT22;8258;51.020;4.248;2023-03-13T15:28:45;19.70;99.80
16301;DHT22;8258;51.020;4.248;2023-03-13T15:31:13;19.60;99.50
16301;DHT22;8258;51.020;4.248;2023-03-13T15:33:41;20.10;99.70
16301;DHT22;8258;51.020;4.248;2023-03-13T15:36:10;20.30;98.90
16301;DHT22;8258;51.020;4.248;2023-03-13T15:38:38;20.00;99.60
16301;DHT22;8258;51.020;4.248;2023-03-13T15:41:05;19.40;99.70
16301;DHT22;8258;51.020;4.248;2023-03-13T15:43:33;19.30;99.90
16301;DHT22;8258;51.020;4.248;2023-03-13T15:46:00;19.00;99.90
16301;DHT22;8258;51.020;4.248;2023-03-13T15:48:28;18.40;99.90
16301;DHT22;8258;51.020;4.248;2023-03-13T15:50:58;18.70;99.90
16301;DHT22;8258;51.020;4.248;2023-03-13T15:53:28;18.50;99.90
16301;DHT22;8258;51.020;4.248;2023-03-13T15:55:57;18.70;99.90
16301;DHT22;8258;51.020;4.248;2023-03-13T15:58:26;18.60;99.90
16301;DHT22;8258;51.020;4.248;2023-03-13T16:00:55;18.10;99.90
16301;DHT22;8258;51.020;4.248;2023-03-13T16:03:24;17.70;99.90
16301;DHT22;8258;51.020;4.248;2023-03-13T16:05:53;18.10;99.90
16301;DHT22;8258;51.020;4.248;2023-03-13T16:08:22;18.70;99.90
16301;DHT22;8258;51.020;4.248;2023-03-13T16:10:51;18.70;99.90
16301;DHT22;8258;51.020;4.248;2023-03-13T16:13:18;18.60;99.90
16301;DHT22;8258;51.020;4.248;2023-03-13T16:15:46;18.40;99.90
16301;DHT22;8258;51.020;4.248;2023-03-13T16:18:19;18.20;99.90
16301;DHT22;8258;51.020;4.248;2023-03-13T16:20:46;17.70;99.90
16301;DHT22;8258;51.020;4.248;2023-03-13T16:23:13;17.40;99.90
16301;DHT22;8258;51.020;4.248;2023-03-13T16:25:41;17.50;99.90